sensor_id;sensor_type;location;lat;lon;timestamp;temperature;humidity
21823;DHT22;11074;48.596;9.238;2023-07-31T00:01:09;17.50;99.90
21823;DHT22;11074;48.596;9.238;2023-07-31T00:03:35;17.50;99.90
21823;DHT22;11074;48.596;9.238;2023-07-31T00:06:00;17.60;99.90
21823;DHT22;11074;48.596;9.238;2023-07-31T00:08:26;17.50;99.90
21823;DHT22;11074;48.596;9.238;2023-07-31T00:10:52;17.50;99.90
21823;DHT22;11074;48.596;9.238;2023-07-31T00:13:18;17.50;99.90
21823;DHT22;11074;48.596;9.238;2023-07-31T00:15:44;17.40;99.90
21823;DHT22;11074;48.596;9.238;2023-07-31T00:18:10;17.50;99.90
21823;DHT22;11074;48.596;9.238;2023-07-31T00:20:35;17.40;99.90
21823;DHT22;11074;48.596;9.238;2023-07-31T00:23:01;17.20;99.90
21823;DHT22;11074;48.596;9.238;2023-07-31T00:25:26;17.10;99.90
21823;DHT22;11074;48.596;9.238;2023-07-31T00:27:52;17.10;99.90
21823;DHT22;11074;48.596;9.238;2023-07-31T00:30:17;17.10;99.90
21823;DHT22;11074;48.596;9.238;2023-07-31T00:32:43;17.10;99.90
21823;DHT22;11074;48.596;9.238;2023-07-31T00:35:09;17.20;99.90
21823;DHT22;11074;48.596;9.238;2023-07-31T00:37:34;17.20;99.90
21823;DHT22;11074;48.596;9.238;2023-07-31T00:40:00;17.20;99.90
21823;DHT22;11074;48.596;9.238;2023-07-31T00:42:26;17.10;99.90
21823;DHT22;11074;48.596;9.238;2023-07-31T00:44:51;16.90;99.90
21823;DHT22;11074;48.596;9.238;2023-07-31T00:47:17;17.00;99.90
21823;DHT22;11074;48.596;9.238;2023-07-31T00:49:43;17.00;99.90
21823;DHT22;11074;48.596;9.238;2023-07-31T00:52:10;16.90;99.90
21823;DHT22;11074;48.596;9.238;2023-07-31T00:54:35;16.90;99.90
21823;DHT22;11074;48.596;9.238;2023-07-31T00:57:02;16.90;99.90
21823;DHT22;11074;48.596;9.238;2023-07-31T00:59:28;16.90;99.90
21823;DHT22;11074;48.596;9.238;2023-07-31T01:01:54;16.90;99.90
21823;DHT22;11074;48.596;9.238;2023-07-31T01:04:20;16.80;99.90
21823;DHT22;11074;48.596;9.238;2023-07-31T01:12:45;16.90;99.90
21823;DHT22;11074;48.596;9.238;2023-07-31T01:15:13;17.00;99.90
21823;DHT22;11074;48.596;9.238;2023-07-31T01:17:43;16.90;99.90
21823;DHT22;11074;48.596;9.238;2023-07-31T01:20:17;16.80;99.90
21823;DHT22;11074;48.596;9.238;2023-07-31T01:23:11;16.70;99.90
21823;DHT22;11074;48.596;9.238;2023-07-31T01:26:11;16.70;99.90
21823;DHT22;11074;48.596;9.238;2023-07-31T01:31:29;16.80;99.90
21823;DHT22;11074;48.596;9.238;2023-07-31T01:34:00;16.90;99.90
21823;DHT22;11074;48.596;9.238;2023-07-31T01:36:27;16.90;99.90
21823;DHT22;11074;48.596;9.238;2023-07-31T01:38:58;16.80;99.90
21823;DHT22;11074;48.596;9.238;2023-07-31T01:41:25;16.70;99.90
21823;DHT22;11074;48.596;9.238;2023-07-31T01:43:51;16.70;99.90
21823;DHT22;11074;48.596;9.238;2023-07-31T01:46:17;16.70;99.90
21823;DHT22;11074;48.596;9.238;2023-07-31T01:48:43;16.70;99.90
21823;DHT22;11074;48.596;9.238;2023-07-31T01:51:08;16.70;99.90
21823;DHT22;11074;48.596;9.238;2023-07-31T01:53:34;16.70;99.90
21823;DHT22;11074;48.596;9.238;2023-07-31T01:55:59;16.70;99.90
21823;DHT22;11074;48.596;9.238;2023-07-31T01:58:25;16.60;99.90
21823;DHT22;11074;48.596;9.238;2023-07-31T02:00:51;16.60;99.90
21823;DHT22;11074;48.596;9.238;2023-07-31T02:03:16;16.60;99.90
21823;DHT22;11074;48.596;9.238;2023-07-31T02:05:49;16.60;99.90
21823;DHT22;11074;48.596;9.238;2023-07-31T02:08:16;16.50;99.90
21823;DHT22;11074;48.596;9.238;2023-07-31T02:10:42;16.60;99.90
21823;DHT22;11074;48.596;9.238;2023-07-31T02:13:08;16.50;99.90
21823;DHT22;11074;48.596;9.238;2023-07-31T02:15:34;16.50;99.90
21823;DHT22;11074;48.596;9.238;2023-07-31T02:18:00;16.40;99.90
21823;DHT22;11074;48.596;9.238;2023-07-31T02:20:26;16.50;99.90
21823;DHT22;11074;48.596;9.238;2023-07-31T02:22:52;16.50;99.90
21823;DHT22;11074;48.596;9.238;2023-07-31T02:25:17;16.50;99.90
21823;DHT22;11074;48.596;9.238;2023-07-31T02:27:43;16.50;99.90
21823;DHT22;11074;48.596;9.238;2023-07-31T02:30:09;16.40;99.90
21823;DHT22;11074;48.596;9.238;2023-07-31T02:32:35;16.30;99.90
21823;DHT22;11074;48.596;9.238;2023-07-31T02:35:01;16.20;99.90
21823;DHT22;11074;48.596;9.238;2023-07-31T02:37:27;16.10;99.90
21823;DHT22;11074;48.596;9.238;2023-07-31T02:39:54;16.10;99.90
21823;DHT22;11074;48.596;9.238;2023-07-31T02:42:20;15.90;99.90
21823;DHT22;11074;48.596;9.238;2023-07-31T02:44:45;15.80;99.90
21823;DHT22;11074;48.596;9.238;2023-07-31T02:47:11;15.90;99.90
21823;DHT22;11074;48.596;9.238;2023-07-31T02:49:37;15.90;99.90
21823;DHT22;11074;48.596;9.238;2023-07-31T02:52:02;15.80;99.90
21823;DHT22;11074;48.596;9.238;2023-07-31T02:54:28;15.90;99.90
21823;DHT22;11074;48.596;9.238;2023-07-31T02:56:54;16.00;99.90
21823;DHT22;11074;48.596;9.238;2023-07-31T02:59:20;16.00;99.90
21823;DHT22;11074;48.596;9.238;2023-07-31T03:01:46;16.00;99.90
21823;DHT22;11074;48.596;9.238;2023-07-31T03:04:11;16.10;99.90
21823;DHT22;11074;48.596;9.238;2023-07-31T03:06:37;16.00;99.90
21823;DHT22;11074;48.596;9.238;2023-07-31T03:09:03;16.00;99.90
21823;DHT22;11074;48.596;9.238;2023-07-31T03:11:28;16.00;99.90
21823;DHT22;11074;48.596;9.238;2023-07-31T03:13:54;15.90;99.90
21823;DHT22;11074;48.596;9.238;2023-07-31T03:16:19;16.00;99.90
21823;DHT22;11074;48.596;9.238;2023-07-31T03:18:45;15.90;99.90
21823;DHT22;11074;48.596;9.238;2023-07-31T03:21:11;15.80;99.90
21823;DHT22;11074;48.596;9.238;2023-07-31T03:23:37;15.90;99.90
21823;DHT22;11074;48.596;9.238;2023-07-31T03:26:07;15.90;99.90
21823;DHT22;11074;48.596;9.238;2023-07-31T03:28:33;15.90;99.90
21823;DHT22;11074;48.596;9.238;2023-07-31T03:30:59;16.00;99.90
21823;DHT22;11074;48.596;9.238;2023-07-31T03:33:25;15.90;99.90
21823;DHT22;11074;48.596;9.238;2023-07-31T03:35:51;15.90;99.90
21823;DHT22;11074;48.596;9.238;2023-07-31T03:38:17;15.90;99.90
21823;DHT22;11074;48.596;9.238;2023-07-31T03:40:43;15.90;99.90
21823;DHT22;11074;48.596;9.238;2023-07-31T03:43:09;15.90;99.90
21823;DHT22;11074;48.596;9.238;2023-07-31T03:45:35;16.00;99.90
21823;DHT22;11074;48.596;9.238;2023-07-31T03:48:00;15.90;99.90
21823;DHT22;11074;48.596;9.238;2023-07-31T03:50:26;15.80;99.90
21823;DHT22;11074;48.596;9.238;2023-07-31T03:52:52;16.00;99.90
21823;DHT22;11074;48.596;9.238;2023-07-31T03:55:18;15.90;99.90
21823;DHT22;11074;48.596;9.238;2023-07-31T03:57:44;15.90;99.90
21823;DHT22;11074;48.596;9.238;2023-07-31T04:00:10;15.80;99.90
21823;DHT22;11074;48.596;9.238;2023-07-31T04:02:36;15.80;99.90
21823;DHT22;11074;48.596;9.238;2023-07-31T04:05:01;15.90;99.90
21823;DHT22;11074;48.596;9.238;2023-07-31T04:07:27;15.90;99.90
21823;DHT22;11074;48.596;9.238;2023-07-31T04:09:53;15.90;99.90
21823;DHT22;11074;48.596;9.238;2023-07-31T04:12:18;15.90;99.90
21823;DHT22;11074;48.596;9.238;2023-07-31T04:14:44;15.80;99.90
21823;DHT22;11074;48.596;9.238;2023-07-31T04:17:10;15.80;99.90
21823;DHT22;11074;48.596;9.238;2023-07-31T04:19:35;15.90;99.90
21823;DHT22;11074;48.596;9.238;2023-07-31T04:22:01;15.90;99.90
21823;DHT22;11074;48.596;9.238;2023-07-31T04:24:26;15.90;99.90
21823;DHT22;11074;48.596;9.238;2023-07-31T04:26:52;15.90;99.90
21823;DHT22;11074;48.596;9.238;2023-07-31T04:29:19;15.90;99.90
21823;DHT22;11074;48.596;9.238;2023-07-31T04:31:45;15.90;99.90
21823;DHT22;11074;48.596;9.238;2023-07-31T04:34:11;15.90;99.90
21823;DHT22;11074;48.596;9.238;2023-07-31T04:36:39;16.00;99.90
21823;DHT22;11074;48.596;9.238;2023-07-31T04:39:05;16.00;99.90
21823;DHT22;11074;48.596;9.238;2023-07-31T04:41:31;16.00;99.90
21823;DHT22;11074;48.596;9.238;2023-07-31T04:43:56;16.00;99.90
21823;DHT22;11074;48.596;9.238;2023-07-31T04:46:22;15.90;99.90
21823;DHT22;11074;48.596;9.238;2023-07-31T04:48:48;15.90;99.90
21823;DHT22;11074;48.596;9.238;2023-07-31T04:51:13;15.90;99.90
21823;DHT22;11074;48.596;9.238;2023-07-31T04:53:39;16.00;99.90
21823;DHT22;11074;48.596;9.238;2023-07-31T04:56:04;15.90;99.90
21823;DHT22;11074;48.596;9.238;2023-07-31T04:58:30;15.90;99.90
21823;DHT22;11074;48.596;9.238;2023-07-31T05:00:56;15.90;99.90
21823;DHT22;11074;48.596;9.238;2023-07-31T05:03:21;15.90;99.90
21823;DHT22;11074;48.596;9.238;2023-07-31T05:05:47;15.90;99.90
21823;DHT22;11074;48.596;9.238;2023-07-31T05:08:13;15.90;99.90
21823;DHT22;11074;48.596;9.238;2023-07-31T05:10:39;16.00;99.90
21823;DHT22;11074;48.596;9.238;2023-07-31T05:13:04;16.00;99.90
21823;DHT22;11074;48.596;9.238;2023-07-31T05:15:30;16.00;99.90
21823;DHT22;11074;48.596;9.238;2023-07-31T05:17:59;16.00;99.90
21823;DHT22;11074;48.596;9.238;2023-07-31T05:20:25;16.10;99.90
21823;DHT22;11074;48.596;9.238;2023-07-31T05:22:51;16.10;99.90
21823;DHT22;11074;48.596;9.238;2023-07-31T05:25:17;16.10;99.90
21823;DHT22;11074;48.596;9.238;2023-07-31T05:27:45;16.10;99.90
21823;DHT22;11074;48.596;9.238;2023-07-31T05:30:11;16.10;99.90
21823;DHT22;11074;48.596;9.238;2023-07-31T05:32:39;16.10;99.90
21823;DHT22;11074;48.596;9.238;2023-07-31T05:35:07;16.20;99.90
21823;DHT22;11074;48.596;9.238;2023-07-31T05:37:34;16.20;99.90
21823;DHT22;11074;48.596;9.238;2023-07-31T05:40:00;16.20;99.90
21823;DHT22;11074;48.596;9.238;2023-07-31T05:42:25;16.20;99.90
21823;DHT22;11074;48.596;9.238;2023-07-31T05:44:51;16.30;99.90
21823;DHT22;11074;48.596;9.238;2023-07-31T05:47:17;16.30;99.90
21823;DHT22;11074;48.596;9.238;2023-07-31T05:49:42;16.30;99.90
21823;DHT22;11074;48.596;9.238;2023-07-31T05:52:09;16.40;99.90
21823;DHT22;11074;48.596;9.238;2023-07-31T05:54:35;16.40;99.90
21823;DHT22;11074;48.596;9.238;2023-07-31T05:57:00;16.40;99.90
21823;DHT22;11074;48.596;9.238;2023-07-31T05:59:26;16.50;99.90
21823;DHT22;11074;48.596;9.238;2023-07-31T06:01:52;16.50;99.90
21823;DHT22;11074;48.596;9.238;2023-07-31T06:04:18;16.60;99.90
21823;DHT22;11074;48.596;9.238;2023-07-31T06:06:44;16.70;99.90
21823;DHT22;11074;48.596;9.238;2023-07-31T06:09:09;16.70;99.90
21823;DHT22;11074;48.596;9.238;2023-07-31T06:11:35;16.60;99.90
21823;DHT22;11074;48.596;9.238;2023-07-31T06:14:00;16.70;99.90
21823;DHT22;11074;48.596;9.238;2023-07-31T06:16:26;16.70;99.90
21823;DHT22;11074;48.596;9.238;2023-07-31T06:18:52;16.70;99.90
21823;DHT22;11074;48.596;9.238;2023-07-31T06:21:18;16.80;99.90
21823;DHT22;11074;48.596;9.238;2023-07-31T06:23:44;16.90;99.90
21823;DHT22;11074;48.596;9.238;2023-07-31T06:26:09;16.90;99.90
21823;DHT22;11074;48.596;9.238;2023-07-31T06:28:35;16.90;99.90
21823;DHT22;11074;48.596;9.238;2023-07-31T06:31:00;17.00;99.90
21823;DHT22;11074;48.596;9.238;2023-07-31T06:33:27;17.00;99.90
21823;DHT22;11074;48.596;9.238;2023-07-31T06:35:53;17.00;99.90
21823;DHT22;11074;48.596;9.238;2023-07-31T06:38:26;17.00;99.90
21823;DHT22;11074;48.596;9.238;2023-07-31T06:40:53;17.10;99.90
21823;DHT22;11074;48.596;9.238;2023-07-31T06:43:19;17.10;99.90
21823;DHT22;11074;48.596;9.238;2023-07-31T06:45:44;17.10;99.90
21823;DHT22;11074;48.596;9.238;2023-07-31T06:48:11;17.10;99.90
21823;DHT22;11074;48.596;9.238;2023-07-31T06:50:36;17.20;99.90
21823;DHT22;11074;48.596;9.238;2023-07-31T06:53:02;17.20;99.90
21823;DHT22;11074;48.596;9.238;2023-07-31T06:55:28;17.20;99.90
21823;DHT22;11074;48.596;9.238;2023-07-31T06:57:55;17.40;99.90
21823;DHT22;11074;48.596;9.238;2023-07-31T07:00:22;17.40;99.90
21823;DHT22;11074;48.596;9.238;2023-07-31T07:02:49;17.40;99.90
21823;DHT22;11074;48.596;9.238;2023-07-31T07:05:16;17.50;99.90
21823;DHT22;11074;48.596;9.238;2023-07-31T07:07:44;17.60;99.90
21823;DHT22;11074;48.596;9.238;2023-07-31T07:10:10;17.70;99.90
21823;DHT22;11074;48.596;9.238;2023-07-31T07:12:36;17.70;99.90
21823;DHT22;11074;48.596;9.238;2023-07-31T07:15:02;17.80;99.90
21823;DHT22;11074;48.596;9.238;2023-07-31T07:17:29;17.90;99.90
21823;DHT22;11074;48.596;9.238;2023-07-31T07:19:57;18.00;99.90
21823;DHT22;11074;48.596;9.238;2023-07-31T07:22:23;18.00;99.90
21823;DHT22;11074;48.596;9.238;2023-07-31T07:24:49;18.10;99.90
21823;DHT22;11074;48.596;9.238;2023-07-31T07:27:15;18.20;99.90
21823;DHT22;11074;48.596;9.238;2023-07-31T07:29:40;18.30;99.90
21823;DHT22;11074;48.596;9.238;2023-07-31T07:32:06;18.30;99.90
21823;DHT22;11074;48.596;9.238;2023-07-31T07:34:32;18.40;99.90
21823;DHT22;11074;48.596;9.238;2023-07-31T07:36:58;18.40;99.90
21823;DHT22;11074;48.596;9.238;2023-07-31T07:39:24;18.30;99.90
21823;DHT22;11074;48.596;9.238;2023-07-31T07:41:50;18.40;99.90
21823;DHT22;11074;48.596;9.238;2023-07-31T07:44:16;18.40;99.90
21823;DHT22;11074;48.596;9.238;2023-07-31T07:46:43;18.40;99.90
21823;DHT22;11074;48.596;9.238;2023-07-31T07:49:08;18.40;99.90
21823;DHT22;11074;48.596;9.238;2023-07-31T07:51:34;18.40;99.90
21823;DHT22;11074;48.596;9.238;2023-07-31T07:54:00;18.40;99.90
21823;DHT22;11074;48.596;9.238;2023-07-31T07:56:26;18.40;99.90
21823;DHT22;11074;48.596;9.238;2023-07-31T07:58:53;18.40;99.90
21823;DHT22;11074;48.596;9.238;2023-07-31T08:01:19;18.40;99.90
21823;DHT22;11074;48.596;9.238;2023-07-31T08:03:46;18.60;99.90
21823;DHT22;11074;48.596;9.238;2023-07-31T08:06:12;18.80;99.90
21823;DHT22;11074;48.596;9.238;2023-07-31T08:08:39;18.70;99.90
21823;DHT22;11074;48.596;9.238;2023-07-31T08:11:05;18.70;99.90
21823;DHT22;11074;48.596;9.238;2023-07-31T08:13:31;18.80;99.90
21823;DHT22;11074;48.596;9.238;2023-07-31T08:15:57;18.80;99.90
21823;DHT22;11074;48.596;9.238;2023-07-31T08:18:23;18.90;99.90
21823;DHT22;11074;48.596;9.238;2023-07-31T08:20:48;18.90;99.90
21823;DHT22;11074;48.596;9.238;2023-07-31T08:23:14;19.00;99.90
21823;DHT22;11074;48.596;9.238;2023-07-31T08:25:40;19.00;99.90
21823;DHT22;11074;48.596;9.238;2023-07-31T08:28:06;19.00;99.90
21823;DHT22;11074;48.596;9.238;2023-07-31T08:30:32;19.10;99.90
21823;DHT22;11074;48.596;9.238;2023-07-31T08:33:01;19.30;99.90
21823;DHT22;11074;48.596;9.238;2023-07-31T08:35:28;19.20;99.90
21823;DHT22;11074;48.596;9.238;2023-07-31T08:37:54;19.20;99.90
21823;DHT22;11074;48.596;9.238;2023-07-31T08:40:20;19.30;99.90
21823;DHT22;11074;48.596;9.238;2023-07-31T08:42:48;19.30;99.90
21823;DHT22;11074;48.596;9.238;2023-07-31T08:45:16;19.40;99.90
21823;DHT22;11074;48.596;9.238;2023-07-31T08:47:49;19.50;99.90
21823;DHT22;11074;48.596;9.238;2023-07-31T08:50:18;19.60;99.90
21823;DHT22;11074;48.596;9.238;2023-07-31T08:52:50;19.60;99.90
21823;DHT22;11074;48.596;9.238;2023-07-31T08:55:20;19.70;99.90
21823;DHT22;11074;48.596;9.238;2023-07-31T08:57:51;19.70;99.90
21823;DHT22;11074;48.596;9.238;2023-07-31T09:00:20;19.80;99.90
21823;DHT22;11074;48.596;9.238;2023-07-31T09:05:26;20.00;99.90
21823;DHT22;11074;48.596;9.238;2023-07-31T09:07:54;20.10;99.90
21823;DHT22;11074;48.596;9.238;2023-07-31T09:10:21;20.20;99.90
21823;DHT22;11074;48.596;9.238;2023-07-31T09:12:49;20.20;99.90
21823;DHT22;11074;48.596;9.238;2023-07-31T09:15:16;20.20;99.90
21823;DHT22;11074;48.596;9.238;2023-07-31T09:17:42;20.10;99.90
21823;DHT22;11074;48.596;9.238;2023-07-31T09:20:19;20.10;99.90
21823;DHT22;11074;48.596;9.238;2023-07-31T09:22:48;20.10;99.90
21823;DHT22;11074;48.596;9.238;2023-07-31T09:25:15;20.10;99.90
21823;DHT22;11074;48.596;9.238;2023-07-31T09:28:02;20.10;99.90
21823;DHT22;11074;48.596;9.238;2023-07-31T09:30:30;20.20;99.90
21823;DHT22;11074;48.596;9.238;2023-07-31T09:33:09;20.20;99.90
21823;DHT22;11074;48.596;9.238;2023-07-31T09:35:35;20.20;99.90
21823;DHT22;11074;48.596;9.238;2023-07-31T09:38:09;20.30;99.90
21823;DHT22;11074;48.596;9.238;2023-07-31T09:40:39;20.30;99.90
21823;DHT22;11074;48.596;9.238;2023-07-31T09:43:08;20.30;99.90
21823;DHT22;11074;48.596;9.238;2023-07-31T09:45:39;20.40;99.90
21823;DHT22;11074;48.596;9.238;2023-07-31T09:48:15;20.40;99.90
21823;DHT22;11074;48.596;9.238;2023-07-31T09:50:46;20.40;99.90
21823;DHT22;11074;48.596;9.238;2023-07-31T09:53:13;20.50;99.90
21823;DHT22;11074;48.596;9.238;2023-07-31T09:55:41;20.50;99.90
21823;DHT22;11074;48.596;9.238;2023-07-31T09:58:12;20.60;99.90
21823;DHT22;11074;48.596;9.238;2023-07-31T10:00:39;20.60;99.90
21823;DHT22;11074;48.596;9.238;2023-07-31T10:03:07;20.70;99.90
21823;DHT22;11074;48.596;9.238;2023-07-31T10:06:08;20.70;99.90
21823;DHT22;11074;48.596;9.238;2023-07-31T10:08:30;20.70;99.90
21823;DHT22;11074;48.596;9.238;2023-07-31T10:11:02;20.80;99.90
21823;DHT22;11074;48.596;9.238;2023-07-31T10:13:30;20.80;99.90
21823;DHT22;11074;48.596;9.238;2023-07-31T10:15:59;20.80;99.90
21823;DHT22;11074;48.596;9.238;2023-07-31T10:18:26;20.90;99.90
21823;DHT22;11074;48.596;9.238;2023-07-31T10:20:54;20.90;99.90
21823;DHT22;11074;48.596;9.238;2023-07-31T10:23:22;20.80;99.90
21823;DHT22;11074;48.596;9.238;2023-07-31T10:25:53;20.90;99.90
21823;DHT22;11074;48.596;9.238;2023-07-31T10:28:20;21.00;99.90
21823;DHT22;11074;48.596;9.238;2023-07-31T10:30:46;21.00;99.90
21823;DHT22;11074;48.596;9.238;2023-07-31T10:33:13;21.10;99.90
21823;DHT22;11074;48.596;9.238;2023-07-31T10:35:40;21.10;99.90
21823;DHT22;11074;48.596;9.238;2023-07-31T10:38:10;21.20;99.90
21823;DHT22;11074;48.596;9.238;2023-07-31T10:40:37;21.20;99.90
21823;DHT22;11074;48.596;9.238;2023-07-31T10:43:03;21.20;99.90
21823;DHT22;11074;48.596;9.238;2023-07-31T10:45:38;21.30;99.90
21823;DHT22;11074;48.596;9.238;2023-07-31T10:48:12;21.30;99.90
21823;DHT22;11074;48.596;9.238;2023-07-31T10:50:50;21.50;99.90
21823;DHT22;11074;48.596;9.238;2023-07-31T10:53:29;21.50;99.90
21823;DHT22;11074;48.596;9.238;2023-07-31T10:56:06;21.60;99.90
21823;DHT22;11074;48.596;9.238;2023-07-31T10:58:33;21.70;99.90
21823;DHT22;11074;48.596;9.238;2023-07-31T11:01:01;21.80;99.90
21823;DHT22;11074;48.596;9.238;2023-07-31T11:03:46;21.90;99.90
21823;DHT22;11074;48.596;9.238;2023-07-31T11:06:14;21.90;99.90
21823;DHT22;11074;48.596;9.238;2023-07-31T11:08:47;21.90;99.90
21823;DHT22;11074;48.596;9.238;2023-07-31T11:11:15;22.10;99.90
21823;DHT22;11074;48.596;9.238;2023-07-31T11:13:51;22.10;99.90
21823;DHT22;11074;48.596;9.238;2023-07-31T11:16:23;22.20;99.90
21823;DHT22;11074;48.596;9.238;2023-07-31T11:18:51;22.30;99.90
21823;DHT22;11074;48.596;9.238;2023-07-31T11:21:20;22.20;99.90
21823;DHT22;11074;48.596;9.238;2023-07-31T11:23:52;22.20;99.90
21823;DHT22;11074;48.596;9.238;2023-07-31T11:26:23;22.10;99.90
21823;DHT22;11074;48.596;9.238;2023-07-31T11:28:50;22.20;99.90
21823;DHT22;11074;48.596;9.238;2023-07-31T11:31:17;22.20;99.90
21823;DHT22;11074;48.596;9.238;2023-07-31T11:33:44;22.10;99.90
21823;DHT22;11074;48.596;9.238;2023-07-31T11:36:20;22.10;99.90
21823;DHT22;11074;48.596;9.238;2023-07-31T11:38:46;22.20;99.90
21823;DHT22;11074;48.596;9.238;2023-07-31T11:41:16;22.20;99.90
21823;DHT22;11074;48.596;9.238;2023-07-31T11:43:42;22.20;99.90
21823;DHT22;11074;48.596;9.238;2023-07-31T11:46:09;22.30;99.90
21823;DHT22;11074;48.596;9.238;2023-07-31T11:48:37;22.10;99.90
21823;DHT22;11074;48.596;9.238;2023-07-31T11:51:08;22.10;99.90
21823;DHT22;11074;48.596;9.238;2023-07-31T11:53:42;22.10;99.90
21823;DHT22;11074;48.596;9.238;2023-07-31T11:56:17;22.10;99.90
21823;DHT22;11074;48.596;9.238;2023-07-31T11:58:46;22.10;99.90
21823;DHT22;11074;48.596;9.238;2023-07-31T12:01:15;22.10;99.90
21823;DHT22;11074;48.596;9.238;2023-07-31T12:03:44;22.10;99.90
21823;DHT22;11074;48.596;9.238;2023-07-31T12:06:11;22.10;99.90
21823;DHT22;11074;48.596;9.238;2023-07-31T12:08:37;22.10;99.90
21823;DHT22;11074;48.596;9.238;2023-07-31T12:11:05;22.10;99.90
21823;DHT22;11074;48.596;9.238;2023-07-31T12:13:33;22.10;99.90
21823;DHT22;11074;48.596;9.238;2023-07-31T12:16:00;22.10;99.90
21823;DHT22;11074;48.596;9.238;2023-07-31T12:18:33;22.10;99.90
21823;DHT22;11074;48.596;9.238;2023-07-31T12:21:02;22.20;99.90
21823;DHT22;11074;48.596;9.238;2023-07-31T12:23:31;22.10;99.90
21823;DHT22;11074;48.596;9.238;2023-07-31T12:26:12;22.10;99.90
21823;DHT22;11074;48.596;9.238;2023-07-31T12:28:44;22.10;99.90
21823;DHT22;11074;48.596;9.238;2023-07-31T12:31:19;22.10;99.90
21823;DHT22;11074;48.596;9.238;2023-07-31T12:33:48;22.10;99.90
21823;DHT22;11074;48.596;9.238;2023-07-31T12:36:18;22.10;99.90
21823;DHT22;11074;48.596;9.238;2023-07-31T12:38:46;22.10;99.90
21823;DHT22;11074;48.596;9.238;2023-07-31T12:41:12;22.00;99.90
21823;DHT22;11074;48.596;9.238;2023-07-31T12:43:39;21.80;99.90
21823;DHT22;11074;48.596;9.238;2023-07-31T12:46:07;21.80;99.90
21823;DHT22;11074;48.596;9.238;2023-07-31T12:48:34;21.70;99.90
21823;DHT22;11074;48.596;9.238;2023-07-31T12:51:01;21.70;99.90
21823;DHT22;11074;48.596;9.238;2023-07-31T12:53:28;21.70;99.90
21823;DHT22;11074;48.596;9.238;2023-07-31T12:55:56;21.70;99.90
21823;DHT22;11074;48.596;9.238;2023-07-31T12:58:22;21.80;99.90
21823;DHT22;11074;48.596;9.238;2023-07-31T13:00:48;21.80;99.90
21823;DHT22;11074;48.596;9.238;2023-07-31T13:03:13;21.90;99.90
21823;DHT22;11074;48.596;9.238;2023-07-31T13:05:39;22.00;99.90
21823;DHT22;11074;48.596;9.238;2023-07-31T13:08:05;22.10;99.90
21823;DHT22;11074;48.596;9.238;2023-07-31T13:10:31;22.20;99.90
21823;DHT22;11074;48.596;9.238;2023-07-31T13:12:56;22.20;99.90
21823;DHT22;11074;48.596;9.238;2023-07-31T13:15:22;22.30;99.90
21823;DHT22;11074;48.596;9.238;2023-07-31T13:17:48;22.30;99.90
21823;DHT22;11074;48.596;9.238;2023-07-31T13:20:14;22.40;99.90
21823;DHT22;11074;48.596;9.238;2023-07-31T13:22:40;22.50;99.90
21823;DHT22;11074;48.596;9.238;2023-07-31T13:25:06;22.60;99.90
21823;DHT22;11074;48.596;9.238;2023-07-31T13:27:32;22.70;99.90
21823;DHT22;11074;48.596;9.238;2023-07-31T13:29:58;22.70;99.90
21823;DHT22;11074;48.596;9.238;2023-07-31T13:32:24;22.90;99.90
21823;DHT22;11074;48.596;9.238;2023-07-31T13:34:50;22.90;99.90
21823;DHT22;11074;48.596;9.238;2023-07-31T13:37:17;22.90;99.90
21823;DHT22;11074;48.596;9.238;2023-07-31T13:39:42;22.80;99.90
21823;DHT22;11074;48.596;9.238;2023-07-31T13:42:09;22.70;99.90
21823;DHT22;11074;48.596;9.238;2023-07-31T13:44:41;22.60;99.90
21823;DHT22;11074;48.596;9.238;2023-07-31T13:47:07;22.50;99.90
21823;DHT22;11074;48.596;9.238;2023-07-31T13:49:34;22.50;99.90
21823;DHT22;11074;48.596;9.238;2023-07-31T13:52:01;22.50;99.90
21823;DHT22;11074;48.596;9.238;2023-07-31T13:54:26;22.40;99.90
21823;DHT22;11074;48.596;9.238;2023-07-31T13:56:53;22.30;99.90
21823;DHT22;11074;48.596;9.238;2023-07-31T13:59:19;22.30;99.90
21823;DHT22;11074;48.596;9.238;2023-07-31T14:01:46;22.30;99.90
21823;DHT22;11074;48.596;9.238;2023-07-31T14:04:12;22.20;99.90
21823;DHT22;11074;48.596;9.238;2023-07-31T14:06:38;22.20;99.90
21823;DHT22;11074;48.596;9.238;2023-07-31T14:09:04;22.30;99.90
21823;DHT22;11074;48.596;9.238;2023-07-31T14:11:33;22.20;99.90
21823;DHT22;11074;48.596;9.238;2023-07-31T14:13:59;22.20;99.90
21823;DHT22;11074;48.596;9.238;2023-07-31T14:16:25;22.10;99.90
21823;DHT22;11074;48.596;9.238;2023-07-31T14:18:50;22.10;99.90
21823;DHT22;11074;48.596;9.238;2023-07-31T14:21:16;22.10;99.90
21823;DHT22;11074;48.596;9.238;2023-07-31T14:23:44;22.10;99.90
21823;DHT22;11074;48.596;9.238;2023-07-31T14:26:10;22.00;99.90
21823;DHT22;11074;48.596;9.238;2023-07-31T14:28:35;22.00;99.90
21823;DHT22;11074;48.596;9.238;2023-07-31T14:31:01;21.90;99.90
21823;DHT22;11074;48.596;9.238;2023-07-31T14:33:27;22.00;99.90
21823;DHT22;11074;48.596;9.238;2023-07-31T14:35:52;22.00;99.90
21823;DHT22;11074;48.596;9.238;2023-07-31T14:38:18;22.10;99.90
21823;DHT22;11074;48.596;9.238;2023-07-31T14:40:44;22.10;99.90
21823;DHT22;11074;48.596;9.238;2023-07-31T14:43:10;22.10;99.90
21823;DHT22;11074;48.596;9.238;2023-07-31T14:45:36;22.00;99.90
21823;DHT22;11074;48.596;9.238;2023-07-31T14:48:01;22.00;99.90
21823;DHT22;11074;48.596;9.238;2023-07-31T14:50:28;22.10;99.90
21823;DHT22;11074;48.596;9.238;2023-07-31T14:52:54;22.00;99.90
21823;DHT22;11074;48.596;9.238;2023-07-31T14:55:19;22.10;99.90
21823;DHT22;11074;48.596;9.238;2023-07-31T14:57:45;22.10;99.90
21823;DHT22;11074;48.596;9.238;2023-07-31T15:00:11;22.10;99.90
21823;DHT22;11074;48.596;9.238;2023-07-31T15:02:38;22.10;99.90
21823;DHT22;11074;48.596;9.238;2023-07-31T15:05:04;22.10;99.90
21823;DHT22;11074;48.596;9.238;2023-07-31T15:07:31;22.10;99.90
21823;DHT22;11074;48.596;9.238;2023-07-31T15:10:03;22.10;99.90
21823;DHT22;11074;48.596;9.238;2023-07-31T15:12:29;22.10;99.90
21823;DHT22;11074;48.596;9.238;2023-07-31T15:14:55;22.10;99.90
21823;DHT22;11074;48.596;9.238;2023-07-31T15:17:20;22.10;99.90
21823;DHT22;11074;48.596;9.238;2023-07-31T15:19:46;22.00;99.90
21823;DHT22;11074;48.596;9.238;2023-07-31T15:22:12;22.10;99.90
21823;DHT22;11074;48.596;9.238;2023-07-31T15:24:37;22.10;99.90
21823;DHT22;11074;48.596;9.238;2023-07-31T15:27:03;22.10;99.90
21823;DHT22;11074;48.596;9.238;2023-07-31T15:29:29;22.10;99.90
21823;DHT22;11074;48.596;9.238;2023-07-31T15:31:56;22.10;99.90
21823;DHT22;11074;48.596;9.238;2023-07-31T15:34:22;22.10;99.90
21823;DHT22;11074;48.596;9.238;2023-07-31T15:36:48;22.10;99.90
21823;DHT22;11074;48.596;9.238;2023-07-31T15:39:14;22.10;99.90
21823;DHT22;11074;48.596;9.238;2023-07-31T15:41:40;22.10;99.90